sensor_id;sensor_type;location;lat;lon;timestamp;P1;durP1;ratioP1;P2;durP2;ratioP2
39098;SDS011;24844;52.380;7.018;2023-01-28T00:00:26;13.43;;;12.02;;
39098;SDS011;24844;52.380;7.018;2023-01-28T00:02:51;15.65;;;13.98;;
39098;SDS011;24844;52.380;7.018;2023-01-28T00:05:17;17.83;;;16.02;;
39098;SDS011;24844;52.380;7.018;2023-01-28T00:07:43;17.35;;;15.55;;
39098;SDS011;24844;52.380;7.018;2023-01-28T00:10:09;16.25;;;14.40;;
39098;SDS011;24844;52.380;7.018;2023-01-28T00:12:35;14.75;;;13.25;;
39098;SDS011;24844;52.380;7.018;2023-01-28T00:15:00;18.17;;;14.57;;
39098;SDS011;24844;52.380;7.018;2023-01-28T00:17:26;17.88;;;13.68;;
39098;SDS011;24844;52.380;7.018;2023-01-28T00:19:52;14.95;;;13.00;;
39098;SDS011;24844;52.380;7.018;2023-01-28T00:22:17;16.00;;;14.27;;
39098;SDS011;24844;52.380;7.018;2023-01-28T00:24:43;16.45;;;13.55;;
39098;SDS011;24844;52.380;7.018;2023-01-28T00:27:10;17.65;;;14.80;;
39098;SDS011;24844;52.380;7.018;2023-01-28T00:29:36;18.67;;;14.57;;
39098;SDS011;24844;52.380;7.018;2023-01-28T00:32:02;18.17;;;15.18;;
39098;SDS011;24844;52.380;7.018;2023-01-28T00:34:28;17.38;;;15.55;;
39098;SDS011;24844;52.380;7.018;2023-01-28T00:36:54;17.88;;;14.80;;
39098;SDS011;24844;52.380;7.018;2023-01-28T00:39:23;17.38;;;15.55;;
39098;SDS011;24844;52.380;7.018;2023-01-28T00:41:50;17.80;;;15.55;;
39098;SDS011;24844;52.380;7.018;2023-01-28T00:44:16;17.83;;;15.90;;
39098;SDS011;24844;52.380;7.018;2023-01-28T00:46:42;17.30;;;15.10;;
39098;SDS011;24844;52.380;7.018;2023-01-28T00:49:08;17.33;;;15.48;;
39098;SDS011;24844;52.380;7.018;2023-01-28T00:51:34;17.55;;;15.73;;
39098;SDS011;24844;52.380;7.018;2023-01-28T00:54:00;17.77;;;15.45;;
39098;SDS011;24844;52.380;7.018;2023-01-28T00:56:26;20.70;;;16.98;;
39098;SDS011;24844;52.380;7.018;2023-01-28T00:58:51;24.48;;;18.90;;
39098;SDS011;24844;52.380;7.018;2023-01-28T01:03:45;21.50;;;17.75;;
39098;SDS011;24844;52.380;7.018;2023-01-28T01:06:12;21.83;;;18.88;;
39098;SDS011;24844;52.380;7.018;2023-01-28T01:08:38;22.45;;;19.00;;
39098;SDS011;24844;52.380;7.018;2023-01-28T01:11:07;22.73;;;19.90;;
39098;SDS011;24844;52.380;7.018;2023-01-28T01:13:33;23.25;;;19.92;;
39098;SDS011;24844;52.380;7.018;2023-01-28T01:16:00;23.13;;;19.48;;
39098;SDS011;24844;52.380;7.018;2023-01-28T01:18:27;23.63;;;20.40;;
39098;SDS011;24844;52.380;7.018;2023-01-28T01:20:53;22.33;;;19.20;;
39098;SDS011;24844;52.380;7.018;2023-01-28T01:23:23;23.20;;;19.60;;
39098;SDS011;24844;52.380;7.018;2023-01-28T01:25:50;23.45;;;20.70;;
39098;SDS011;24844;52.380;7.018;2023-01-28T01:28:16;23.60;;;19.63;;
39098;SDS011;24844;52.380;7.018;2023-01-28T01:30:42;20.15;;;17.92;;
39098;SDS011;24844;52.380;7.018;2023-01-28T01:33:07;21.00;;;18.67;;
39098;SDS011;24844;52.380;7.018;2023-01-28T01:35:33;20.30;;;17.95;;
39098;SDS011;24844;52.380;7.018;2023-01-28T01:37:58;19.80;;;17.70;;
39098;SDS011;24844;52.380;7.018;2023-01-28T01:40:24;20.13;;;17.90;;
39098;SDS011;24844;52.380;7.018;2023-01-28T01:42:50;18.50;;;16.58;;
39098;SDS011;24844;52.380;7.018;2023-01-28T01:45:15;20.00;;;17.90;;
39098;SDS011;24844;52.380;7.018;2023-01-28T01:50:33;22.33;;;19.52;;
39098;SDS011;24844;52.380;7.018;2023-01-28T01:53:15;22.13;;;19.38;;
39098;SDS011;24844;52.380;7.018;2023-01-28T01:55:43;21.92;;;19.30;;
39098;SDS011;24844;52.380;7.018;2023-01-28T01:58:12;22.50;;;19.40;;
39098;SDS011;24844;52.380;7.018;2023-01-28T02:00:40;23.48;;;20.23;;
39098;SDS011;24844;52.380;7.018;2023-01-28T02:03:07;21.48;;;19.15;;
39098;SDS011;24844;52.380;7.018;2023-01-28T02:05:33;23.63;;;19.63;;
39098;SDS011;24844;52.380;7.018;2023-01-28T02:07:59;23.30;;;19.48;;
39098;SDS011;24844;52.380;7.018;2023-01-28T02:10:45;24.05;;;20.42;;
39098;SDS011;24844;52.380;7.018;2023-01-28T02:13:13;22.55;;;19.60;;
39098;SDS011;24844;52.380;7.018;2023-01-28T02:15:40;27.35;;;20.80;;
39098;SDS011;24844;52.380;7.018;2023-01-28T02:18:06;23.63;;;20.08;;
39098;SDS011;24844;52.380;7.018;2023-01-28T02:23:06;24.38;;;21.02;;
39098;SDS011;24844;52.380;7.018;2023-01-28T02:28:48;24.23;;;20.83;;
39098;SDS011;24844;52.380;7.018;2023-01-28T02:31:30;23.33;;;19.63;;
39098;SDS011;24844;52.380;7.018;2023-01-28T02:34:17;22.95;;;19.85;;
39098;SDS011;24844;52.380;7.018;2023-01-28T02:39:28;21.77;;;18.13;;
39098;SDS011;24844;52.380;7.018;2023-01-28T02:41:58;22.30;;;19.77;;
39098;SDS011;24844;52.380;7.018;2023-01-28T02:44:30;24.95;;;20.73;;
39098;SDS011;24844;52.380;7.018;2023-01-28T02:46:56;25.02;;;21.67;;
39098;SDS011;24844;52.380;7.018;2023-01-28T02:49:41;24.15;;;20.50;;
39098;SDS011;24844;52.380;7.018;2023-01-28T02:52:15;23.80;;;19.95;;
39098;SDS011;24844;52.380;7.018;2023-01-28T02:55:17;25.08;;;21.00;;
39098;SDS011;24844;52.380;7.018;2023-01-28T03:06:11;22.92;;;19.60;;
39098;SDS011;24844;52.380;7.018;2023-01-28T03:11:41;22.27;;;19.65;;
39098;SDS011;24844;52.380;7.018;2023-01-28T03:14:32;21.88;;;18.30;;
39098;SDS011;24844;52.380;7.018;2023-01-28T03:17:31;22.38;;;18.77;;
39098;SDS011;24844;52.380;7.018;2023-01-28T03:20:23;24.17;;;20.05;;
39098;SDS011;24844;52.380;7.018;2023-01-28T03:23:10;22.80;;;19.65;;
39098;SDS011;24844;52.380;7.018;2023-01-28T03:26:00;25.30;;;20.38;;
39098;SDS011;24844;52.380;7.018;2023-01-28T03:28:47;23.58;;;19.80;;
39098;SDS011;24844;52.380;7.018;2023-01-28T03:31:32;23.23;;;18.48;;
39098;SDS011;24844;52.380;7.018;2023-01-28T03:34:18;22.30;;;19.60;;
39098;SDS011;24844;52.380;7.018;2023-01-28T03:37:04;28.65;;;21.10;;
39098;SDS011;24844;52.380;7.018;2023-01-28T03:39:30;23.25;;;19.35;;
39098;SDS011;24844;52.380;7.018;2023-01-28T03:42:00;24.52;;;20.83;;
39098;SDS011;24844;52.380;7.018;2023-01-28T03:44:31;26.23;;;20.35;;
39098;SDS011;24844;52.380;7.018;2023-01-28T03:47:15;23.38;;;19.35;;
39098;SDS011;24844;52.380;7.018;2023-01-28T03:49:42;21.45;;;18.45;;
39098;SDS011;24844;52.380;7.018;2023-01-28T03:52:15;23.88;;;21.08;;
39098;SDS011;24844;52.380;7.018;2023-01-28T03:54:43;26.30;;;20.95;;
39098;SDS011;24844;52.380;7.018;2023-01-28T03:57:11;28.05;;;21.33;;
39098;SDS011;24844;52.380;7.018;2023-01-28T03:59:37;26.60;;;22.65;;
39098;SDS011;24844;52.380;7.018;2023-01-28T04:02:03;23.48;;;17.63;;
39098;SDS011;24844;52.380;7.018;2023-01-28T04:04:29;20.92;;;16.95;;
39098;SDS011;24844;52.380;7.018;2023-01-28T04:06:56;21.98;;;17.05;;
39098;SDS011;24844;52.380;7.018;2023-01-28T04:09:23;21.15;;;17.10;;
39098;SDS011;24844;52.380;7.018;2023-01-28T04:11:49;21.65;;;17.60;;
39098;SDS011;24844;52.380;7.018;2023-01-28T04:14:15;21.83;;;18.63;;
39098;SDS011;24844;52.380;7.018;2023-01-28T04:16:42;20.70;;;17.58;;
39098;SDS011;24844;52.380;7.018;2023-01-28T04:19:08;22.63;;;18.52;;
39098;SDS011;24844;52.380;7.018;2023-01-28T04:21:34;26.33;;;19.55;;
39098;SDS011;24844;52.380;7.018;2023-01-28T04:24:00;21.50;;;18.50;;
39098;SDS011;24844;52.380;7.018;2023-01-28T04:26:26;21.10;;;18.20;;
39098;SDS011;24844;52.380;7.018;2023-01-28T04:28:52;22.33;;;18.83;;
39098;SDS011;24844;52.380;7.018;2023-01-28T04:31:18;22.40;;;18.17;;
39098;SDS011;24844;52.380;7.018;2023-01-28T04:33:43;21.83;;;18.33;;
39098;SDS011;24844;52.380;7.018;2023-01-28T04:36:09;20.27;;;16.90;;
39098;SDS011;24844;52.380;7.018;2023-01-28T04:38:34;21.30;;;15.90;;
39098;SDS011;24844;52.380;7.018;2023-01-28T04:41:00;21.23;;;17.10;;
39098;SDS011;24844;52.380;7.018;2023-01-28T04:43:25;21.95;;;18.17;;
39098;SDS011;24844;52.380;7.018;2023-01-28T04:45:51;19.17;;;15.55;;
39098;SDS011;24844;52.380;7.018;2023-01-28T04:48:16;17.80;;;14.35;;
39098;SDS011;24844;52.380;7.018;2023-01-28T04:50:42;19.70;;;16.00;;
39098;SDS011;24844;52.380;7.018;2023-01-28T04:53:08;19.40;;;15.80;;
39098;SDS011;24844;52.380;7.018;2023-01-28T04:55:34;19.40;;;15.88;;
39098;SDS011;24844;52.380;7.018;2023-01-28T04:58:00;20.20;;;14.40;;
39098;SDS011;24844;52.380;7.018;2023-01-28T05:00:25;19.92;;;15.80;;
39098;SDS011;24844;52.380;7.018;2023-01-28T05:02:51;18.23;;;14.52;;
39098;SDS011;24844;52.380;7.018;2023-01-28T05:05:16;18.13;;;14.43;;
39098;SDS011;24844;52.380;7.018;2023-01-28T05:07:42;18.83;;;15.10;;
39098;SDS011;24844;52.380;7.018;2023-01-28T05:10:08;19.63;;;14.63;;
39098;SDS011;24844;52.380;7.018;2023-01-28T05:12:35;19.55;;;15.38;;
39098;SDS011;24844;52.380;7.018;2023-01-28T05:15:00;21.00;;;15.50;;
39098;SDS011;24844;52.380;7.018;2023-01-28T05:17:26;20.52;;;15.88;;
39098;SDS011;24844;52.380;7.018;2023-01-28T05:19:52;20.30;;;15.25;;
39098;SDS011;24844;52.380;7.018;2023-01-28T05:22:18;21.45;;;16.48;;
39098;SDS011;24844;52.380;7.018;2023-01-28T05:24:44;22.80;;;16.98;;
39098;SDS011;24844;52.380;7.018;2023-01-28T05:27:09;19.58;;;15.35;;
39098;SDS011;24844;52.380;7.018;2023-01-28T05:29:35;20.20;;;16.27;;
39098;SDS011;24844;52.380;7.018;2023-01-28T05:32:01;18.98;;;15.27;;
39098;SDS011;24844;52.380;7.018;2023-01-28T05:34:26;19.13;;;15.35;;
39098;SDS011;24844;52.380;7.018;2023-01-28T05:36:52;19.25;;;16.08;;
39098;SDS011;24844;52.380;7.018;2023-01-28T05:39:17;18.42;;;14.98;;
39098;SDS011;24844;52.380;7.018;2023-01-28T05:41:43;20.08;;;15.60;;
39098;SDS011;24844;52.380;7.018;2023-01-28T05:44:09;18.73;;;14.73;;
39098;SDS011;24844;52.380;7.018;2023-01-28T05:46:34;19.77;;;15.15;;
39098;SDS011;24844;52.380;7.018;2023-01-28T05:49:00;19.42;;;15.27;;
39098;SDS011;24844;52.380;7.018;2023-01-28T05:51:26;17.75;;;14.70;;
39098;SDS011;24844;52.380;7.018;2023-01-28T05:53:51;20.55;;;16.20;;
39098;SDS011;24844;52.380;7.018;2023-01-28T05:56:17;20.85;;;15.52;;
39098;SDS011;24844;52.380;7.018;2023-01-28T05:58:42;19.45;;;15.48;;
39098;SDS011;24844;52.380;7.018;2023-01-28T06:01:08;18.48;;;15.00;;
39098;SDS011;24844;52.380;7.018;2023-01-28T06:03:33;18.90;;;15.20;;
39098;SDS011;24844;52.380;7.018;2023-01-28T06:05:59;19.33;;;15.65;;
39098;SDS011;24844;52.380;7.018;2023-01-28T06:08:24;21.05;;;16.17;;
39098;SDS011;24844;52.380;7.018;2023-01-28T06:10:50;21.63;;;16.80;;
39098;SDS011;24844;52.380;7.018;2023-01-28T06:13:15;21.08;;;16.65;;
39098;SDS011;24844;52.380;7.018;2023-01-28T06:15:41;20.95;;;15.80;;
39098;SDS011;24844;52.380;7.018;2023-01-28T06:18:06;22.75;;;17.17;;
39098;SDS011;24844;52.380;7.018;2023-01-28T06:20:32;23.42;;;17.67;;
39098;SDS011;24844;52.380;7.018;2023-01-28T06:22:58;22.05;;;17.67;;
39098;SDS011;24844;52.380;7.018;2023-01-28T06:25:23;23.23;;;16.85;;
39098;SDS011;24844;52.380;7.018;2023-01-28T06:27:49;25.05;;;17.83;;
39098;SDS011;24844;52.380;7.018;2023-01-28T06:30:14;21.73;;;16.02;;
39098;SDS011;24844;52.380;7.018;2023-01-28T06:32:40;21.67;;;17.10;;
39098;SDS011;24844;52.380;7.018;2023-01-28T06:35:06;20.60;;;16.15;;
39098;SDS011;24844;52.380;7.018;2023-01-28T06:37:32;21.77;;;17.23;;
39098;SDS011;24844;52.380;7.018;2023-01-28T06:39:58;19.85;;;16.42;;
39098;SDS011;24844;52.380;7.018;2023-01-28T06:42:23;18.83;;;14.77;;
39098;SDS011;24844;52.380;7.018;2023-01-28T06:44:49;17.05;;;14.18;;
39098;SDS011;24844;52.380;7.018;2023-01-28T06:47:15;17.17;;;14.63;;
39098;SDS011;24844;52.380;7.018;2023-01-28T06:49:40;17.80;;;14.20;;
39098;SDS011;24844;52.380;7.018;2023-01-28T06:52:06;17.15;;;14.75;;
39098;SDS011;24844;52.380;7.018;2023-01-28T06:54:31;16.35;;;14.23;;
39098;SDS011;24844;52.380;7.018;2023-01-28T06:56:57;16.55;;;13.85;;
39098;SDS011;24844;52.380;7.018;2023-01-28T06:59:22;15.73;;;13.75;;
39098;SDS011;24844;52.380;7.018;2023-01-28T07:01:48;15.40;;;13.68;;
39098;SDS011;24844;52.380;7.018;2023-01-28T07:04:14;14.43;;;12.93;;
39098;SDS011;24844;52.380;7.018;2023-01-28T07:06:39;17.67;;;14.30;;
39098;SDS011;24844;52.380;7.018;2023-01-28T07:09:05;18.10;;;15.40;;
39098;SDS011;24844;52.380;7.018;2023-01-28T07:11:30;18.98;;;15.43;;
39098;SDS011;24844;52.380;7.018;2023-01-28T07:13:56;16.90;;;14.57;;
39098;SDS011;24844;52.380;7.018;2023-01-28T07:16:22;17.83;;;15.45;;
39098;SDS011;24844;52.380;7.018;2023-01-28T07:18:47;14.68;;;13.23;;
39098;SDS011;24844;52.380;7.018;2023-01-28T07:21:13;14.30;;;12.77;;
39098;SDS011;24844;52.380;7.018;2023-01-28T07:23:39;16.25;;;13.98;;
39098;SDS011;24844;52.380;7.018;2023-01-28T07:26:05;15.63;;;13.73;;
39098;SDS011;24844;52.380;7.018;2023-01-28T07:28:30;14.85;;;13.30;;
39098;SDS011;24844;52.380;7.018;2023-01-28T07:30:56;16.67;;;14.05;;
39098;SDS011;24844;52.380;7.018;2023-01-28T07:33:22;15.82;;;14.13;;
39098;SDS011;24844;52.380;7.018;2023-01-28T07:35:48;14.82;;;13.13;;
39098;SDS011;24844;52.380;7.018;2023-01-28T07:38:13;14.10;;;12.35;;
39098;SDS011;24844;52.380;7.018;2023-01-28T07:40:39;18.85;;;14.98;;
39098;SDS011;24844;52.380;7.018;2023-01-28T07:43:06;15.52;;;13.93;;
39098;SDS011;24844;52.380;7.018;2023-01-28T07:45:33;14.82;;;13.13;;
39098;SDS011;24844;52.380;7.018;2023-01-28T07:48:00;16.67;;;13.30;;
39098;SDS011;24844;52.380;7.018;2023-01-28T07:50:27;13.50;;;12.15;;
39098;SDS011;24844;52.380;7.018;2023-01-28T07:52:55;13.90;;;11.68;;
39098;SDS011;24844;52.380;7.018;2023-01-28T07:55:21;11.75;;;10.65;;
39098;SDS011;24844;52.380;7.018;2023-01-28T07:57:51;12.63;;;11.38;;
39098;SDS011;24844;52.380;7.018;2023-01-28T08:00:18;12.07;;;10.57;;
39098;SDS011;24844;52.380;7.018;2023-01-28T08:02:46;14.23;;;12.73;;
39098;SDS011;24844;52.380;7.018;2023-01-28T08:05:18;14.15;;;12.75;;
39098;SDS011;24844;52.380;7.018;2023-01-28T08:07:45;16.85;;;14.77;;
39098;SDS011;24844;52.380;7.018;2023-01-28T08:10:12;13.77;;;12.30;;
39098;SDS011;24844;52.380;7.018;2023-01-28T08:12:39;16.33;;;11.55;;
39098;SDS011;24844;52.380;7.018;2023-01-28T08:15:05;14.05;;;12.65;;
39098;SDS011;24844;52.380;7.018;2023-01-28T08:17:31;12.98;;;11.68;;
39098;SDS011;24844;52.380;7.018;2023-01-28T08:19:57;13.38;;;12.00;;
39098;SDS011;24844;52.380;7.018;2023-01-28T08:22:23;13.57;;;12.18;;
39098;SDS011;24844;52.380;7.018;2023-01-28T08:24:50;12.35;;;10.98;;
39098;SDS011;24844;52.380;7.018;2023-01-28T08:27:15;13.20;;;11.80;;
39098;SDS011;24844;52.380;7.018;2023-01-28T08:29:41;13.20;;;11.82;;
39098;SDS011;24844;52.380;7.018;2023-01-28T08:32:07;14.48;;;12.98;;
39098;SDS011;24844;52.380;7.018;2023-01-28T08:34:33;13.00;;;11.63;;
39098;SDS011;24844;52.380;7.018;2023-01-28T08:36:59;13.05;;;11.85;;
39098;SDS011;24844;52.380;7.018;2023-01-28T08:39:24;13.88;;;12.48;;
39098;SDS011;24844;52.380;7.018;2023-01-28T08:41:50;14.18;;;12.77;;
39098;SDS011;24844;52.380;7.018;2023-01-28T08:44:16;13.77;;;12.35;;
39098;SDS011;24844;52.380;7.018;2023-01-28T08:46:41;15.77;;;13.75;;
39098;SDS011;24844;52.380;7.018;2023-01-28T08:49:07;16.38;;;14.60;;
39098;SDS011;24844;52.380;7.018;2023-01-28T08:51:32;17.25;;;14.20;;
39098;SDS011;24844;52.380;7.018;2023-01-28T08:53:58;15.98;;;14.23;;
39098;SDS011;24844;52.380;7.018;2023-01-28T08:56:24;18.05;;;14.80;;
39098;SDS011;24844;52.380;7.018;2023-01-28T08:58:50;16.40;;;14.32;;
39098;SDS011;24844;52.380;7.018;2023-01-28T09:01:15;16.33;;;14.63;;
39098;SDS011;24844;52.380;7.018;2023-01-28T09:03:41;15.20;;;13.60;;
39098;SDS011;24844;52.380;7.018;2023-01-28T09:06:06;16.85;;;13.95;;
39098;SDS011;24844;52.380;7.018;2023-01-28T09:08:32;16.80;;;14.13;;
39098;SDS011;24844;52.380;7.018;2023-01-28T09:10:58;15.95;;;14.30;;
39098;SDS011;24844;52.380;7.018;2023-01-28T09:13:24;16.38;;;14.60;;
39098;SDS011;24844;52.380;7.018;2023-01-28T09:15:51;16.23;;;14.52;;
39098;SDS011;24844;52.380;7.018;2023-01-28T09:18:16;15.68;;;14.10;;
39098;SDS011;24844;52.380;7.018;2023-01-28T09:20:42;16.60;;;14.88;;
39098;SDS011;24844;52.380;7.018;2023-01-28T09:23:08;15.50;;;13.90;;
39098;SDS011;24844;52.380;7.018;2023-01-28T09:25:34;17.27;;;13.48;;
39098;SDS011;24844;52.380;7.018;2023-01-28T09:28:00;14.13;;;12.75;;
39098;SDS011;24844;52.380;7.018;2023-01-28T09:30:26;14.65;;;13.15;;
39098;SDS011;24844;52.380;7.018;2023-01-28T09:32:53;16.40;;;14.15;;
39098;SDS011;24844;52.380;7.018;2023-01-28T09:35:20;16.02;;;14.43;;
39098;SDS011;24844;52.380;7.018;2023-01-28T09:37:46;14.98;;;13.35;;
39098;SDS011;24844;52.380;7.018;2023-01-28T09:40:16;16.58;;;13.35;;
39098;SDS011;24844;52.380;7.018;2023-01-28T09:42:48;15.00;;;13.50;;
39098;SDS011;24844;52.380;7.018;2023-01-28T09:47:56;15.40;;;13.90;;
39098;SDS011;24844;52.380;7.018;2023-01-28T09:50:30;15.40;;;13.80;;
39098;SDS011;24844;52.380;7.018;2023-01-28T09:53:05;12.50;;;11.23;;
39098;SDS011;24844;52.380;7.018;2023-01-28T09:55:47;16.67;;;14.88;;
39098;SDS011;24844;52.380;7.018;2023-01-28T09:58:15;13.48;;;12.07;;
39098;SDS011;24844;52.380;7.018;2023-01-28T10:06:43;13.55;;;10.77;;
39098;SDS011;24844;52.380;7.018;2023-01-28T10:17:42;11.95;;;10.75;;
39098;SDS011;24844;52.380;7.018;2023-01-28T10:20:16;10.98;;;9.88;;
39098;SDS011;24844;52.380;7.018;2023-01-28T10:25:43;12.38;;;10.43;;
39098;SDS011;24844;52.380;7.018;2023-01-28T10:30:46;13.52;;;12.13;;
39098;SDS011;24844;52.380;7.018;2023-01-28T10:33:30;14.77;;;13.15;;
39098;SDS011;24844;52.380;7.018;2023-01-28T10:36:01;13.95;;;12.48;;
39098;SDS011;24844;52.380;7.018;2023-01-28T10:38:27;15.70;;;13.82;;
39098;SDS011;24844;52.380;7.018;2023-01-28T10:40:54;14.60;;;12.73;;
39098;SDS011;24844;52.380;7.018;2023-01-28T10:43:28;12.20;;;10.57;;
39098;SDS011;24844;52.380;7.018;2023-01-28T10:48:33;13.23;;;11.93;;
39098;SDS011;24844;52.380;7.018;2023-01-28T10:51:06;12.15;;;10.88;;
39098;SDS011;24844;52.380;7.018;2023-01-28T10:53:32;15.15;;;12.65;;
39098;SDS011;24844;52.380;7.018;2023-01-28T10:56:03;14.18;;;12.77;;
39098;SDS011;24844;52.380;7.018;2023-01-28T10:58:33;12.80;;;11.60;;
39098;SDS011;24844;52.380;7.018;2023-01-28T11:01:10;17.30;;;15.25;;
39098;SDS011;24844;52.380;7.018;2023-01-28T11:03:36;15.98;;;14.27;;
39098;SDS011;24844;52.380;7.018;2023-01-28T11:06:03;15.75;;;14.15;;
39098;SDS011;24844;52.380;7.018;2023-01-28T11:08:29;14.25;;;12.35;;
39098;SDS011;24844;52.380;7.018;2023-01-28T11:10:55;14.20;;;12.70;;
39098;SDS011;24844;52.380;7.018;2023-01-28T11:13:28;14.85;;;12.25;;
39098;SDS011;24844;52.380;7.018;2023-01-28T11:15:57;12.93;;;11.07;;
39098;SDS011;24844;52.380;7.018;2023-01-28T11:18:32;14.52;;;12.30;;
39098;SDS011;24844;52.380;7.018;2023-01-28T11:21:03;13.32;;;12.02;;
39098;SDS011;24844;52.380;7.018;2023-01-28T11:26:17;12.82;;;9.00;;
39098;SDS011;24844;52.380;7.018;2023-01-28T11:28:46;11.50;;;10.30;;
39098;SDS011;24844;52.380;7.018;2023-01-28T11:31:14;10.18;;;9.18;;
39098;SDS011;24844;52.380;7.018;2023-01-28T11:33:43;11.90;;;9.73;;
39098;SDS011;24844;52.380;7.018;2023-01-28T11:36:21;10.32;;;9.23;;
39098;SDS011;24844;52.380;7.018;2023-01-28T11:38:49;11.45;;;10.10;;
39098;SDS011;24844;52.380;7.018;2023-01-28T11:41:34;9.52;;;8.52;;
39098;SDS011;24844;52.380;7.018;2023-01-28T11:55:08;11.43;;;9.05;;
39098;SDS011;24844;52.380;7.018;2023-01-28T11:57:59;12.00;;;9.50;;
39098;SDS011;24844;52.380;7.018;2023-01-28T12:03:32;11.68;;;8.65;;
39098;SDS011;24844;52.380;7.018;2023-01-28T12:09:10;9.20;;;8.25;;
39098;SDS011;24844;52.380;7.018;2023-01-28T12:12:02;8.85;;;7.65;;
39098;SDS011;24844;52.380;7.018;2023-01-28T12:28:48;12.60;;;10.50;;
39098;SDS011;24844;52.380;7.018;2023-01-28T12:37:26;12.20;;;10.18;;
39098;SDS011;24844;52.380;7.018;2023-01-28T12:40:28;12.85;;;10.90;;
39098;SDS011;24844;52.380;7.018;2023-01-28T12:46:14;12.68;;;10.45;;
39098;SDS011;24844;52.380;7.018;2023-01-28T12:57:22;14.00;;;10.48;;
39098;SDS011;24844;52.380;7.018;2023-01-28T12:59:51;12.57;;;9.80;;
39098;SDS011;24844;52.380;7.018;2023-01-28T13:02:24;10.48;;;9.38;;
39098;SDS011;24844;52.380;7.018;2023-01-28T13:13:03;12.85;;;9.43;;
39098;SDS011;24844;52.380;7.018;2023-01-28T13:15:29;13.80;;;9.00;;
39098;SDS011;24844;52.380;7.018;2023-01-28T13:18:00;10.55;;;8.90;;
39098;SDS011;24844;52.380;7.018;2023-01-28T13:20:37;12.88;;;9.75;;
39098;SDS011;24844;52.380;7.018;2023-01-28T13:23:21;13.98;;;11.27;;
39098;SDS011;24844;52.380;7.018;2023-01-28T13:31:51;12.13;;;10.43;;
39098;SDS011;24844;52.380;7.018;2023-01-28T13:34:34;13.68;;;10.45;;
39098;SDS011;24844;52.380;7.018;2023-01-28T13:39:58;12.48;;;10.73;;
39098;SDS011;24844;52.380;7.018;2023-01-28T13:42:28;11.50;;;9.60;;
39098;SDS011;24844;52.380;7.018;2023-01-28T13:44:55;13.32;;;9.68;;
39098;SDS011;24844;52.380;7.018;2023-01-28T13:47:32;12.73;;;9.50;;
39098;SDS011;24844;52.380;7.018;2023-01-28T13:50:10;11.60;;;8.95;;
39098;SDS011;24844;52.380;7.018;2023-01-28T13:52:42;11.32;;;8.85;;
39098;SDS011;24844;52.380;7.018;2023-01-28T13:55:15;12.65;;;8.55;;
39098;SDS011;24844;52.380;7.018;2023-01-28T14:03:15;10.38;;;8.73;;
39098;SDS011;24844;52.380;7.018;2023-01-28T14:17:08;12.80;;;9.02;;
39098;SDS011;24844;52.380;7.018;2023-01-28T14:19:54;12.32;;;9.23;;
39098;SDS011;24844;52.380;7.018;2023-01-28T14:22:22;13.43;;;11.30;;
39098;SDS011;24844;52.380;7.018;2023-01-28T14:24:48;10.82;;;8.80;;
39098;SDS011;24844;52.380;7.018;2023-01-28T14:27:56;10.85;;;9.07;;
39098;SDS011;24844;52.380;7.018;2023-01-28T14:33:23;12.80;;;9.88;;
39098;SDS011;24844;52.380;7.018;2023-01-28T14:35:49;11.05;;;9.48;;
39098;SDS011;24844;52.380;7.018;2023-01-28T14:38:16;12.52;;;10.18;;
39098;SDS011;24844;52.380;7.018;2023-01-28T14:40:47;14.88;;;9.95;;
39098;SDS011;24844;52.380;7.018;2023-01-28T14:43:15;13.93;;;10.95;;
39098;SDS011;24844;52.380;7.018;2023-01-28T14:48:21;21.45;;;14.15;;
39098;SDS011;24844;52.380;7.018;2023-01-28T14:59:53;14.55;;;10.77;;
39098;SDS011;24844;52.380;7.018;2023-01-28T15:02:25;11.30;;;9.32;;
39098;SDS011;24844;52.380;7.018;2023-01-28T15:04:52;12.50;;;9.98;;
39098;SDS011;24844;52.380;7.018;2023-01-28T15:07:22;12.55;;;10.27;;
39098;SDS011;24844;52.380;7.018;2023-01-28T15:10:00;16.90;;;11.82;;
39098;SDS011;24844;52.380;7.018;2023-01-28T15:12:38;14.77;;;10.95;;
39098;SDS011;24844;52.380;7.018;2023-01-28T15:17:35;13.98;;;10.75;;
39098;SDS011;24844;52.380;7.018;2023-01-28T15:20:01;16.55;;;12.23;;
39098;SDS011;24844;52.380;7.018;2023-01-28T15:22:27;13.88;;;10.98;;
39098;SDS011;24844;52.380;7.018;2023-01-28T15:24:53;18.45;;;12.20;;
39098;SDS011;24844;52.380;7.018;2023-01-28T15:27:23;14.55;;;10.93;;
39098;SDS011;24844;52.380;7.018;2023-01-28T15:29:55;13.70;;;10.70;;
39098;SDS011;24844;52.380;7.018;2023-01-28T15:32:23;13.93;;;10.63;;
39098;SDS011;24844;52.380;7.018;2023-01-28T15:34:51;14.45;;;11.35;;
39098;SDS011;24844;52.380;7.018;2023-01-28T15:37:18;15.43;;;12.35;;
39098;SDS011;24844;52.380;7.018;2023-01-28T15:39:44;14.25;;;11.23;;
39098;SDS011;24844;52.380;7.018;2023-01-28T15:42:15;14.65;;;12.07;;
39098;SDS011;24844;52.380;7.018;2023-01-28T15:44:45;14.63;;;12.18;;
39098;SDS011;24844;52.380;7.018;2023-01-28T15:47:22;17.58;;;13.27;;
39098;SDS011;24844;52.380;7.018;2023-01-28T15:49:52;21.33;;;15.75;;
39098;SDS011;24844;52.380;7.018;2023-01-28T15:52:20;17.17;;;13.50;;
39098;SDS011;24844;52.380;7.018;2023-01-28T15:54:53;20.60;;;15.50;;
39098;SDS011;24844;52.380;7.018;2023-01-28T15:57:19;16.77;;;14.38;;
39098;SDS011;24844;52.380;7.018;2023-01-28T15:59:46;17.77;;;13.93;;
39098;SDS011;24844;52.380;7.018;2023-01-28T16:04:55;18.27;;;14.55;;
39098;SDS011;24844;52.380;7.018;2023-01-28T16:07:22;27.88;;;21.45;;
39098;SDS011;24844;52.380;7.018;2023-01-28T16:09:52;24.42;;;20.08;;
39098;SDS011;24844;52.380;7.018;2023-01-28T16:12:20;21.20;;;17.25;;
39098;SDS011;24844;52.380;7.018;2023-01-28T16:14:50;19.85;;;15.30;;
39098;SDS011;24844;52.380;7.018;2023-01-28T16:17:44;22.35;;;16.98;;
39098;SDS011;24844;52.380;7.018;2023-01-28T16:20:23;20.45;;;14.93;;
39098;SDS011;24844;52.380;7.018;2023-01-28T16:22:50;21.67;;;14.95;;
39098;SDS011;24844;52.380;7.018;2023-01-28T16:27:46;24.25;;;16.52;;
39098;SDS011;24844;52.380;7.018;2023-01-28T16:30:12;19.23;;;15.13;;
39098;SDS011;24844;52.380;7.018;2023-01-28T16:32:39;19.58;;;15.05;;
39098;SDS011;24844;52.380;7.018;2023-01-28T16:35:13;21.90;;;16.90;;
39098;SDS011;24844;52.380;7.018;2023-01-28T16:37:41;18.08;;;15.02;;
39098;SDS011;24844;52.380;7.018;2023-01-28T16:40:11;19.10;;;15.45;;
39098;SDS011;24844;52.380;7.018;2023-01-28T16:42:38;18.67;;;14.25;;
39098;SDS011;24844;52.380;7.018;2023-01-28T16:45:04;20.63;;;16.02;;
39098;SDS011;24844;52.380;7.018;2023-01-28T16:47:30;20.75;;;15.75;;
39098;SDS011;24844;52.380;7.018;2023-01-28T16:49:56;19.63;;;16.23;;
39098;SDS011;24844;52.380;7.018;2023-01-28T16:52:21;20.10;;;14.43;;
39098;SDS011;24844;52.380;7.018;2023-01-28T16:54:47;20.52;;;16.02;;
39098;SDS011;24844;52.380;7.018;2023-01-28T16:57:14;26.42;;;17.17;;
39098;SDS011;24844;52.380;7.018;2023-01-28T16:59:42;24.67;;;18.85;;
39098;SDS011;24844;52.380;7.018;2023-01-28T17:02:10;23.52;;;16.98;;
39098;SDS011;24844;52.380;7.018;2023-01-28T17:04:36;23.95;;;18.17;;
39098;SDS011;24844;52.380;7.018;2023-01-28T17:07:02;23.27;;;17.92;;
39098;SDS011;24844;52.380;7.018;2023-01-28T17:09:28;21.77;;;17.17;;
39098;SDS011;24844;52.380;7.018;2023-01-28T17:11:54;18.98;;;15.25;;